Terminal Aerodrome Forecast
Issued by NWS New Orleans/Baton Rouge, LA

Home | Current Version | Previous Version | Text Only | Print | Product List | Glossary On
Versions: 1 2 3 4 5 6 7 8 9 10 11 12 13 14 15 16 17 18 19 20 21 22 23 24 25 26 27 28 29 30 31 32 33 34 35 36 37
000
FTUS44 KLIX 251846 AAA
TAFNEW
TAF AMD
KNEW 251846Z 2519/2618 VRB15G25KT 5SM -TSRA BKN025CB
      TEMPO 2519/2521 VRB25G35KT 2SM TSRA BKN015CB
     FM260000 20010KT P6SM SCT080
     FM261000 21008KT P6SM BKN008
     FM261600 20007KT P6SM BKN040=

USA.gov is the U.S. government's official web portal to all federal, state and local government web resources and services.